createdAt,value
2022-09-16T00:03:57.418Z,98793.40
2022-09-16T00:09:01.610Z,98788.60
2022-09-16T00:14:05.113Z,98799.60
2022-09-16T00:19:09.718Z,98800.40
2022-09-16T00:24:15.782Z,98801.60
2022-09-16T00:29:18.764Z,98805.80
2022-09-16T00:34:21.730Z,98806.20
2022-09-16T00:39:24.852Z,98803.60
2022-09-16T00:45:13.854Z,98815.60
2022-09-16T00:50:41.760Z,98812.40
2022-09-16T00:55:46.001Z,98810.20
2022-09-16T01:00:50.288Z,98824.00
2022-09-16T01:05:53.922Z,98826.40
2022-09-16T01:10:57.537Z,98828.80
2022-09-16T01:16:09.201Z,98830.60
2022-09-16T01:21:50.170Z,98826.80
2022-09-16T01:27:29.323Z,98818.80
2022-09-16T01:33:01.608Z,98818.20
2022-09-16T01:38:52.099Z,98817.00
2022-09-16T01:44:12.759Z,98809.00
2022-09-16T01:49:53.480Z,98805.20
2022-09-16T01:55:04.902Z,98803.60
2022-09-16T02:00:14.254Z,98800.40
2022-09-16T02:05:31.733Z,98797.80
2022-09-16T02:10:52.929Z,98801.60
2022-09-16T02:16:05.771Z,98796.80
2022-09-16T02:21:15.909Z,98791.00
2022-09-16T02:26:26.801Z,98797.20
2022-09-16T02:31:37.257Z,98796.80
2022-09-16T02:36:47.924Z,98796.20
2022-09-16T02:41:50.975Z,98798.60
2022-09-16T02:46:53.918Z,98795.20
2022-09-16T02:52:22.014Z,98805.00
2022-09-16T02:57:25.391Z,98809.00
2022-09-16T03:02:29.071Z,98805.60
2022-09-16T03:07:32.603Z,98804.60
2022-09-16T03:13:09.332Z,98800.60
2022-09-16T03:18:21.521Z,98804.20
2022-09-16T03:24:04.979Z,98804.60
2022-09-16T03:29:27.918Z,98805.40
2022-09-16T03:34:45.428Z,98802.40
2022-09-16T03:39:57.989Z,98805.00
2022-09-16T03:45:01.179Z,98799.80
2022-09-16T03:50:05.392Z,98805.60
2022-09-16T03:55:11.108Z,98805.60
2022-09-16T04:00:16.351Z,98811.40
2022-09-16T04:05:19.435Z,98813.40
2022-09-16T04:10:22.976Z,98808.00
2022-09-16T04:15:26.374Z,98811.00
2022-09-16T04:20:31.413Z,98812.60
2022-09-16T04:25:34.839Z,98816.00
2022-09-16T04:30:38.805Z,98814.20
2022-09-16T04:35:42.063Z,98820.00
2022-09-16T04:40:45.404Z,98827.00
2022-09-16T04:45:48.726Z,98829.40
2022-09-16T04:50:53.861Z,98828.40
2022-09-16T04:56:15.071Z,98827.60
2022-09-16T05:01:29.729Z,98820.20
2022-09-16T05:06:37.479Z,98816.60
2022-09-16T05:11:42.431Z,98814.60
2022-09-16T05:16:46.242Z,98814.80
2022-09-16T05:21:49.872Z,98819.80
2022-09-16T05:26:53.205Z,98820.00
2022-09-16T05:31:56.384Z,98815.00
2022-09-16T05:37:00.819Z,98819.00
2022-09-16T05:42:04.948Z,98812.80
2022-09-16T05:47:08.256Z,98808.80
2022-09-16T05:52:11.462Z,98812.20
2022-09-16T05:57:14.980Z,98810.60
2022-09-16T06:02:18.331Z,98822.00
2022-09-16T06:07:21.815Z,98814.20
2022-09-16T06:12:25.008Z,98820.80
2022-09-16T06:17:28.004Z,98818.40
2022-09-16T06:22:31.360Z,98819.00
2022-09-16T06:27:34.418Z,98817.60
2022-09-16T06:32:37.867Z,98811.20
2022-09-16T06:37:40.952Z,98812.20
2022-09-16T06:42:44.368Z,98814.80
2022-09-16T06:47:47.573Z,98804.20
2022-09-16T06:52:51.498Z,98810.00
2022-09-16T06:57:57.472Z,98818.20
2022-09-16T07:03:03.041Z,98812.20
2022-09-16T07:08:06.245Z,98825.60
2022-09-16T07:13:09.353Z,98822.20
2022-09-16T07:18:12.490Z,98819.60
2022-09-16T07:23:15.663Z,98828.60
2022-09-16T07:28:18.906Z,98832.40
2022-09-16T07:33:22.387Z,98834.00
2022-09-16T07:38:25.498Z,98835.60
2022-09-16T07:43:28.597Z,98835.80
2022-09-16T07:48:35.156Z,98845.20
2022-09-16T07:53:40.239Z,98840.60
2022-09-16T07:58:45.983Z,98832.80
2022-09-16T08:03:50.144Z,98828.00
2022-09-16T08:08:57.692Z,98827.60
2022-09-16T08:14:09.661Z,98835.40
2022-09-16T08:19:13.692Z,98824.00
2022-09-16T08:24:16.831Z,98822.20
2022-09-16T08:29:20.010Z,98822.80
2022-09-16T08:34:23.313Z,98826.80
2022-09-16T08:39:26.525Z,98824.20
2022-09-16T08:45:00.582Z,98819.20
2022-09-16T08:50:15.347Z,98820.40
2022-09-16T08:55:35.656Z,98827.00
2022-09-16T09:00:42.259Z,98823.60
2022-09-16T09:05:58.882Z,98818.40
2022-09-16T09:11:24.595Z,98832.00
2022-09-16T09:16:58.271Z,98830.00
2022-09-16T09:22:30.823Z,98828.80
2022-09-16T09:27:48.885Z,98831.00
2022-09-16T09:33:01.119Z,98826.60
2022-09-16T09:38:23.144Z,98819.80
2022-09-16T09:43:43.158Z,98825.00
2022-09-16T09:49:04.689Z,98831.80
2022-09-16T09:54:26.426Z,98848.80
2022-09-16T09:59:54.104Z,98845.00
2022-09-16T10:04:57.316Z,98850.40
2022-09-16T10:10:23.469Z,98849.20
2022-09-16T10:15:32.136Z,98852.80
2022-09-16T10:20:40.067Z,98854.00
2022-09-16T10:25:44.347Z,98858.00
2022-09-16T10:30:52.817Z,98864.40
2022-09-16T10:36:06.950Z,98864.60
2022-09-16T10:41:26.740Z,98872.60
2022-09-16T10:46:31.559Z,98876.80
2022-09-16T10:51:35.006Z,98876.80
2022-09-16T10:56:52.326Z,98869.60
2022-09-16T11:02:23.718Z,98871.80
2022-09-16T11:08:16.491Z,98879.40
2022-09-16T11:14:02.541Z,98885.60
2022-09-16T11:19:44.083Z,98886.40
2022-09-16T11:25:19.872Z,98885.60
2022-09-16T11:30:24.036Z,98881.40
2022-09-16T11:36:08.687Z,98882.00
2022-09-16T11:41:44.966Z,98874.60
2022-09-16T11:47:09.822Z,98877.40
2022-09-16T11:52:35.294Z,98876.20
2022-09-16T11:57:54.394Z,98874.20
2022-09-16T12:03:21.711Z,98884.80
2022-09-16T12:08:40.047Z,98877.40
2022-09-16T12:14:05.393Z,98875.60
2022-09-16T12:19:28.837Z,98884.60
2022-09-16T12:24:58.370Z,98892.20
2022-09-16T12:30:17.145Z,98882.20
2022-09-16T12:35:33.561Z,98884.40
2022-09-16T12:41:09.634Z,98879.00
2022-09-16T12:46:44.659Z,98882.60
2022-09-16T12:52:25.064Z,98883.20
2022-09-16T12:58:06.004Z,98883.80
2022-09-16T13:03:28.013Z,98876.80
2022-09-16T13:08:34.678Z,98876.60
2022-09-16T13:13:43.343Z,98869.60
2022-09-16T13:18:51.055Z,98864.80
2022-09-16T13:24:25.702Z,98867.20
2022-09-16T13:29:47.238Z,98858.80
2022-09-16T13:35:23.831Z,98856.20
2022-09-16T13:40:31.305Z,98848.20
2022-09-16T13:45:42.143Z,98850.00
2022-09-16T13:50:57.715Z,98850.00
2022-09-16T13:56:33.835Z,98840.00
2022-09-16T14:02:27.860Z,98842.20
2022-09-16T14:07:40.218Z,98837.60
2022-09-16T14:13:16.549Z,98839.60
2022-09-16T14:18:25.903Z,98849.00
2022-09-16T14:23:31.629Z,98838.80
2022-09-16T14:28:37.242Z,98841.80
2022-09-16T14:33:57.415Z,98832.60
2022-09-16T14:39:12.739Z,98831.60
2022-09-16T14:44:18.955Z,98823.40
2022-09-16T14:49:23.709Z,98820.80
2022-09-16T14:54:28.568Z,98820.40
2022-09-16T14:59:37.829Z,98824.60
2022-09-16T15:04:47.299Z,98830.00
2022-09-16T15:09:59.891Z,98829.80
2022-09-16T15:15:35.259Z,98834.40
2022-09-16T15:20:42.141Z,98824.60
2022-09-16T15:25:56.896Z,98815.60
2022-09-16T15:31:00.170Z,98810.20
2022-09-16T15:36:07.738Z,98811.80
2022-09-16T15:41:13.648Z,98809.80
2022-09-16T15:46:23.908Z,98803.80
2022-09-16T15:51:49.939Z,98805.40
2022-09-16T15:57:27.357Z,98807.40
2022-09-16T16:02:46.218Z,98807.00
2022-09-16T16:07:54.586Z,98811.80
2022-09-16T16:13:00.139Z,98815.80
2022-09-16T16:18:07.524Z,98811.40
2022-09-16T16:23:13.246Z,98816.20
2022-09-16T16:28:16.601Z,98822.00
2022-09-16T16:33:19.715Z,98823.80
2022-09-16T16:38:22.821Z,98828.40
2022-09-16T16:43:25.930Z,98827.40
2022-09-16T16:48:30.151Z,98825.40
2022-09-16T16:53:33.872Z,98826.20
2022-09-16T16:58:43.211Z,98821.60
2022-09-16T17:03:50.943Z,98823.20
2022-09-16T17:08:54.252Z,98826.00
2022-09-16T17:14:04.724Z,98822.80
2022-09-16T17:19:09.921Z,98818.20
2022-09-16T17:24:14.799Z,98820.60
2022-09-16T17:29:17.938Z,98813.00
2022-09-16T17:34:21.252Z,98818.20
2022-09-16T17:39:24.361Z,98821.20
2022-09-16T17:44:27.777Z,98829.80
2022-09-16T17:49:31.390Z,98826.40
2022-09-16T17:54:34.802Z,98828.80
2022-09-16T17:59:37.906Z,98830.80
2022-09-16T18:04:43.906Z,98836.80
2022-09-16T18:09:47.086Z,98830.40
2022-09-16T18:14:50.600Z,98826.80
2022-09-16T18:19:54.566Z,98827.20
2022-09-16T18:24:58.049Z,98822.20
2022-09-16T18:30:01.064Z,98830.40
2022-09-16T18:35:05.089Z,98821.20
2022-09-16T18:40:09.653Z,98831.60
2022-09-16T18:45:12.947Z,98833.20
2022-09-16T18:50:17.259Z,98836.00
2022-09-16T18:55:21.500Z,98830.40
2022-09-16T19:00:24.910Z,98831.60
2022-09-16T19:05:28.113Z,98831.20
2022-09-16T19:10:31.324Z,98827.40
2022-09-16T19:15:35.201Z,98822.80
2022-09-16T19:20:44.510Z,98826.60
2022-09-16T19:25:47.712Z,98821.80
2022-09-16T19:30:50.814Z,98821.80
2022-09-16T19:35:54.049Z,98823.80
2022-09-16T19:41:05.572Z,98823.40
2022-09-16T19:46:13.729Z,98827.00
2022-09-16T19:51:23.074Z,98821.40
2022-09-16T19:56:31.438Z,98824.80
2022-09-16T20:01:36.729Z,98817.80
2022-09-16T20:06:42.583Z,98819.40
2022-09-16T20:11:49.144Z,98824.60
2022-09-16T20:16:52.384Z,98823.60
2022-09-16T20:21:58.208Z,98820.00
2022-09-16T20:27:01.598Z,98814.40
2022-09-16T20:32:04.859Z,98813.60
2022-09-16T20:37:08.465Z,98819.60
2022-09-16T20:42:11.572Z,98824.20
2022-09-16T20:47:14.784Z,98825.00
2022-09-16T20:52:17.896Z,98824.20
2022-09-16T20:57:21.121Z,98821.20
2022-09-16T21:02:24.322Z,98823.80
2022-09-16T21:07:28.757Z,98825.60
2022-09-16T21:12:31.954Z,98825.00
2022-09-16T21:17:35.055Z,98823.40
2022-09-16T21:22:39.185Z,98822.20
2022-09-16T21:27:42.188Z,98824.80
2022-09-16T21:32:45.300Z,98830.20
2022-09-16T21:37:48.508Z,98833.80
2022-09-16T21:42:51.611Z,98824.60
2022-09-16T21:47:57.613Z,98823.80
2022-09-16T21:53:00.690Z,98823.20
2022-09-16T21:58:04.314Z,98821.00
2022-09-16T22:03:07.823Z,98809.20
2022-09-16T22:08:11.034Z,98804.80
2022-09-16T22:13:14.134Z,98802.00
2022-09-16T22:18:17.653Z,98796.40
2022-09-16T22:23:21.577Z,98800.40
2022-09-16T22:28:24.684Z,98802.80
2022-09-16T22:33:27.796Z,98803.60
2022-09-16T22:38:31.508Z,98811.80
2022-09-16T22:43:40.806Z,98804.40
2022-09-16T22:48:45.763Z,98810.00
2022-09-16T22:53:50.253Z,98804.60
2022-09-16T22:58:56.398Z,98796.00
2022-09-16T23:04:02.719Z,98794.60
2022-09-16T23:09:09.105Z,98791.20
2022-09-16T23:14:21.912Z,98787.00
2022-09-16T23:19:25.233Z,98788.20
2022-09-16T23:24:28.339Z,98779.80
2022-09-16T23:29:31.648Z,98781.40
2022-09-16T23:34:34.766Z,98784.60
2022-09-16T23:39:38.095Z,98787.00
2022-09-16T23:44:41.275Z,98786.00
2022-09-16T23:49:44.388Z,98794.00
2022-09-16T23:54:47.589Z,98786.80
2022-09-16T23:59:50.801Z,98779.00
